sensor_id;sensor_type;location;lat;lon;timestamp;temperature;humidity
76996;DHT22;65929;49.062;10.338;2023-08-30T13:30:47;21.00;52.60
76996;DHT22;65929;49.062;10.338;2023-08-30T13:31:50;20.80;54.30
76996;DHT22;65929;49.062;10.338;2023-08-30T13:32:51;20.80;55.20
76996;DHT22;65929;49.062;10.338;2023-08-30T13:33:52;20.80;55.10
76996;DHT22;65929;49.062;10.338;2023-08-30T13:34:53;20.90;55.10
76996;DHT22;65929;49.062;10.338;2023-08-30T13:35:54;21.00;54.90
76996;DHT22;65929;49.062;10.338;2023-08-30T13:36:55;21.10;55.80
76996;DHT22;65929;49.062;10.338;2023-08-30T13:37:56;21.20;54.10
76996;DHT22;65929;49.062;10.338;2023-08-30T13:38:57;21.40;55.00
76996;DHT22;65929;49.062;10.338;2023-08-30T13:39:58;21.40;53.00
76996;DHT22;65929;49.062;10.338;2023-08-30T13:40:59;21.50;54.40
76996;DHT22;65929;49.062;10.338;2023-08-30T13:42:04;21.50;53.20
76996;DHT22;65929;49.062;10.338;2023-08-30T13:43:06;21.40;52.30
76996;DHT22;65929;49.062;10.338;2023-08-30T13:44:07;21.40;53.70
76996;DHT22;65929;49.062;10.338;2023-08-30T13:45:09;21.40;51.50
76996;DHT22;65929;49.062;10.338;2023-08-30T13:46:15;21.30;53.30
76996;DHT22;65929;49.062;10.338;2023-08-30T13:47:16;21.40;54.10
76996;DHT22;65929;49.062;10.338;2023-08-30T13:48:17;21.70;52.20
76996;DHT22;65929;49.062;10.338;2023-08-30T13:49:18;21.80;52.20
76996;DHT22;65929;49.062;10.338;2023-08-30T13:50:19;22.00;51.10
76996;DHT22;65929;49.062;10.338;2023-08-30T13:51:23;22.10;51.00
76996;DHT22;65929;49.062;10.338;2023-08-30T13:52:24;22.10;49.90
76996;DHT22;65929;49.062;10.338;2023-08-30T13:53:25;22.00;51.40
76996;DHT22;65929;49.062;10.338;2023-08-30T13:54:26;22.00;50.30
76996;DHT22;65929;49.062;10.338;2023-08-30T13:55:29;22.20;50.70
76996;DHT22;65929;49.062;10.338;2023-08-30T13:56:31;22.50;51.80
76996;DHT22;65929;49.062;10.338;2023-08-30T13:57:32;22.50;49.70
76996;DHT22;65929;49.062;10.338;2023-08-30T13:58:33;22.60;53.50
76996;DHT22;65929;49.062;10.338;2023-08-30T13:59:34;22.60;50.40
76996;DHT22;65929;49.062;10.338;2023-08-30T14:00:36;22.50;50.10
76996;DHT22;65929;49.062;10.338;2023-08-30T14:01:38;22.50;48.90
76996;DHT22;65929;49.062;10.338;2023-08-30T14:02:39;22.30;49.70
76996;DHT22;65929;49.062;10.338;2023-08-30T14:03:40;22.30;50.70
76996;DHT22;65929;49.062;10.338;2023-08-30T14:04:41;22.30;50.80
76996;DHT22;65929;49.062;10.338;2023-08-30T14:05:42;22.20;50.00
76996;DHT22;65929;49.062;10.338;2023-08-30T14:06:42;22.20;53.80
76996;DHT22;65929;49.062;10.338;2023-08-30T14:07:43;22.20;49.10
76996;DHT22;65929;49.062;10.338;2023-08-30T14:08:44;22.10;49.20
76996;DHT22;65929;49.062;10.338;2023-08-30T14:09:45;22.00;50.10
76996;DHT22;65929;49.062;10.338;2023-08-30T14:10:46;22.00;50.70
76996;DHT22;65929;49.062;10.338;2023-08-30T14:11:49;21.90;53.40
76996;DHT22;65929;49.062;10.338;2023-08-30T14:12:50;21.90;51.90
76996;DHT22;65929;49.062;10.338;2023-08-30T14:13:50;21.90;51.90
76996;DHT22;65929;49.062;10.338;2023-08-30T14:14:51;22.00;51.10
76996;DHT22;65929;49.062;10.338;2023-08-30T14:15:56;22.00;52.20
76996;DHT22;65929;49.062;10.338;2023-08-30T14:16:58;22.10;50.80
76996;DHT22;65929;49.062;10.338;2023-08-30T14:17:59;22.20;53.40
76996;DHT22;65929;49.062;10.338;2023-08-30T14:19:00;22.10;52.40
76996;DHT22;65929;49.062;10.338;2023-08-30T14:20:07;22.20;52.30
76996;DHT22;65929;49.062;10.338;2023-08-30T14:21:08;22.50;50.10
76996;DHT22;65929;49.062;10.338;2023-08-30T14:22:09;22.60;52.60
76996;DHT22;65929;49.062;10.338;2023-08-30T14:23:09;22.90;53.20
76996;DHT22;65929;49.062;10.338;2023-08-30T14:24:10;23.20;52.60
76996;DHT22;65929;49.062;10.338;2023-08-30T14:25:12;23.50;50.60
76996;DHT22;65929;49.062;10.338;2023-08-30T14:26:13;23.80;51.20
76996;DHT22;65929;49.062;10.338;2023-08-30T14:27:14;24.00;47.50
76996;DHT22;65929;49.062;10.338;2023-08-30T14:28:15;24.10;46.60
76996;DHT22;65929;49.062;10.338;2023-08-30T14:29:19;24.00;44.90
76996;DHT22;65929;49.062;10.338;2023-08-30T14:30:20;23.90;46.20
76996;DHT22;65929;49.062;10.338;2023-08-30T14:31:21;23.90;47.70
76996;DHT22;65929;49.062;10.338;2023-08-30T14:32:23;24.00;46.80
76996;DHT22;65929;49.062;10.338;2023-08-30T14:33:24;24.00;45.30
76996;DHT22;65929;49.062;10.338;2023-08-30T14:34:26;24.00;44.00
76996;DHT22;65929;49.062;10.338;2023-08-30T14:35:27;24.00;46.60
76996;DHT22;65929;49.062;10.338;2023-08-30T14:36:30;24.00;43.60
76996;DHT22;65929;49.062;10.338;2023-08-30T14:37:30;23.90;43.40
76996;DHT22;65929;49.062;10.338;2023-08-30T14:38:31;23.80;43.80
76996;DHT22;65929;49.062;10.338;2023-08-30T14:39:32;23.80;44.80
76996;DHT22;65929;49.062;10.338;2023-08-30T14:40:33;23.80;46.30
76996;DHT22;65929;49.062;10.338;2023-08-30T14:41:34;23.90;45.30
76996;DHT22;65929;49.062;10.338;2023-08-30T14:42:37;24.00;44.60
76996;DHT22;65929;49.062;10.338;2023-08-30T14:43:38;23.80;43.90
76996;DHT22;65929;49.062;10.338;2023-08-30T14:44:39;23.60;44.90
76996;DHT22;65929;49.062;10.338;2023-08-30T14:45:40;23.60;46.10
76996;DHT22;65929;49.062;10.338;2023-08-30T14:46:40;23.60;47.50
76996;DHT22;65929;49.062;10.338;2023-08-30T14:47:43;23.90;47.70
76996;DHT22;65929;49.062;10.338;2023-08-30T14:48:44;24.00;46.90
76996;DHT22;65929;49.062;10.338;2023-08-30T14:49:45;24.20;48.00
76996;DHT22;65929;49.062;10.338;2023-08-30T14:50:50;24.10;44.20
76996;DHT22;65929;49.062;10.338;2023-08-30T14:51:51;23.80;45.00
76996;DHT22;65929;49.062;10.338;2023-08-30T14:52:52;23.60;45.90
76996;DHT22;65929;49.062;10.338;2023-08-30T14:53:55;23.60;46.60
76996;DHT22;65929;49.062;10.338;2023-08-30T14:54:56;23.60;47.60
76996;DHT22;65929;49.062;10.338;2023-08-30T14:55:57;23.80;47.60
76996;DHT22;65929;49.062;10.338;2023-08-30T14:56:58;23.80;47.70
76996;DHT22;65929;49.062;10.338;2023-08-30T14:57:59;23.70;45.80
76996;DHT22;65929;49.062;10.338;2023-08-30T14:59:00;23.80;47.60
76996;DHT22;65929;49.062;10.338;2023-08-30T15:00:01;23.70;45.20
76996;DHT22;65929;49.062;10.338;2023-08-30T15:01:02;23.60;45.30
76996;DHT22;65929;49.062;10.338;2023-08-30T15:02:03;23.40;46.80
76996;DHT22;65929;49.062;10.338;2023-08-30T15:03:06;23.30;47.60
76996;DHT22;65929;49.062;10.338;2023-08-30T15:04:06;23.30;48.50
76996;DHT22;65929;49.062;10.338;2023-08-30T15:05:08;23.20;47.90
76996;DHT22;65929;49.062;10.338;2023-08-30T15:06:09;23.00;46.60
76996;DHT22;65929;49.062;10.338;2023-08-30T15:07:10;22.90;46.60
76996;DHT22;65929;49.062;10.338;2023-08-30T15:08:11;22.80;46.10
76996;DHT22;65929;49.062;10.338;2023-08-30T15:09:12;22.70;45.40
76996;DHT22;65929;49.062;10.338;2023-08-30T15:10:16;22.70;46.30
76996;DHT22;65929;49.062;10.338;2023-08-30T15:11:17;22.50;46.00
76996;DHT22;65929;49.062;10.338;2023-08-30T15:12:18;22.20;47.30
76996;DHT22;65929;49.062;10.338;2023-08-30T15:13:20;22.00;47.40
76996;DHT22;65929;49.062;10.338;2023-08-30T15:14:20;21.90;50.70
76996;DHT22;65929;49.062;10.338;2023-08-30T15:15:21;21.80;48.60
76996;DHT22;65929;49.062;10.338;2023-08-30T15:16:22;21.70;48.20
76996;DHT22;65929;49.062;10.338;2023-08-30T15:17:23;21.40;48.80
76996;DHT22;65929;49.062;10.338;2023-08-30T15:18:26;21.10;49.80
76996;DHT22;65929;49.062;10.338;2023-08-30T15:19:26;20.90;50.50
76996;DHT22;65929;49.062;10.338;2023-08-30T15:20:27;20.90;49.60
76996;DHT22;65929;49.062;10.338;2023-08-30T15:21:28;21.00;50.30
76996;DHT22;65929;49.062;10.338;2023-08-30T15:22:29;21.10;50.90
76996;DHT22;65929;49.062;10.338;2023-08-30T15:23:30;21.30;50.60
76996;DHT22;65929;49.062;10.338;2023-08-30T15:24:31;21.20;49.80
76996;DHT22;65929;49.062;10.338;2023-08-30T15:25:32;21.00;50.20
76996;DHT22;65929;49.062;10.338;2023-08-30T15:26:35;20.90;51.00
76996;DHT22;65929;49.062;10.338;2023-08-30T15:27:35;20.80;52.00
76996;DHT22;65929;49.062;10.338;2023-08-30T15:28:36;20.80;53.70
76996;DHT22;65929;49.062;10.338;2023-08-30T15:29:37;20.80;51.00
76996;DHT22;65929;49.062;10.338;2023-08-30T15:30:41;20.50;51.20
76996;DHT22;65929;49.062;10.338;2023-08-30T15:31:41;20.20;52.00
76996;DHT22;65929;49.062;10.338;2023-08-30T15:32:43;20.00;53.10
76996;DHT22;65929;49.062;10.338;2023-08-30T15:33:45;20.00;53.70
76996;DHT22;65929;49.062;10.338;2023-08-30T15:34:47;19.90;54.30
76996;DHT22;65929;49.062;10.338;2023-08-30T15:35:48;19.90;53.20
76996;DHT22;65929;49.062;10.338;2023-08-30T15:36:48;19.80;54.30
76996;DHT22;65929;49.062;10.338;2023-08-30T15:37:49;19.80;54.40
76996;DHT22;65929;49.062;10.338;2023-08-30T15:38:50;19.80;55.20
76996;DHT22;65929;49.062;10.338;2023-08-30T15:39:59;19.80;55.40
76996;DHT22;65929;49.062;10.338;2023-08-30T15:41:00;19.70;54.40
76996;DHT22;65929;49.062;10.338;2023-08-30T15:42:00;19.70;55.80
76996;DHT22;65929;49.062;10.338;2023-08-30T15:43:02;19.60;56.00
76996;DHT22;65929;49.062;10.338;2023-08-30T15:44:04;19.50;55.80
76996;DHT22;65929;49.062;10.338;2023-08-30T15:45:06;19.50;56.00
76996;DHT22;65929;49.062;10.338;2023-08-30T15:46:07;19.40;55.90
76996;DHT22;65929;49.062;10.338;2023-08-30T15:47:08;19.30;56.00
76996;DHT22;65929;49.062;10.338;2023-08-30T15:48:09;19.30;56.90
76996;DHT22;65929;49.062;10.338;2023-08-30T15:49:11;19.30;57.90
76996;DHT22;65929;49.062;10.338;2023-08-30T15:50:12;19.30;56.50
76996;DHT22;65929;49.062;10.338;2023-08-30T15:51:13;19.20;57.10
76996;DHT22;65929;49.062;10.338;2023-08-30T15:52:14;19.10;57.10
76996;DHT22;65929;49.062;10.338;2023-08-30T15:53:14;19.10;58.50
76996;DHT22;65929;49.062;10.338;2023-08-30T15:54:15;19.20;59.20
76996;DHT22;65929;49.062;10.338;2023-08-30T15:55:16;19.30;58.30
76996;DHT22;65929;49.062;10.338;2023-08-30T15:56:18;19.40;58.90
76996;DHT22;65929;49.062;10.338;2023-08-30T15:57:19;19.50;58.80
76996;DHT22;65929;49.062;10.338;2023-08-30T15:58:20;19.60;59.70
76996;DHT22;65929;49.062;10.338;2023-08-30T15:59:21;19.70;56.30
76996;DHT22;65929;49.062;10.338;2023-08-30T16:00:22;19.70;56.20
76996;DHT22;65929;49.062;10.338;2023-08-30T16:01:23;19.60;55.30
76996;DHT22;65929;49.062;10.338;2023-08-30T16:02:24;19.60;57.70
76996;DHT22;65929;49.062;10.338;2023-08-30T16:03:24;19.50;57.90
76996;DHT22;65929;49.062;10.338;2023-08-30T16:04:27;19.50;58.00
76996;DHT22;65929;49.062;10.338;2023-08-30T16:05:28;19.40;57.80
76996;DHT22;65929;49.062;10.338;2023-08-30T16:06:29;19.30;57.80
76996;DHT22;65929;49.062;10.338;2023-08-30T16:07:29;19.40;58.60
76996;DHT22;65929;49.062;10.338;2023-08-30T16:08:30;19.40;61.50
76996;DHT22;65929;49.062;10.338;2023-08-30T16:09:31;19.40;59.70
76996;DHT22;65929;49.062;10.338;2023-08-30T16:10:32;19.30;57.90
76996;DHT22;65929;49.062;10.338;2023-08-30T16:11:43;19.20;56.10
76996;DHT22;65929;49.062;10.338;2023-08-30T16:12:59;19.10;56.70
76996;DHT22;65929;49.062;10.338;2023-08-30T16:14:19;19.00;58.20
76996;DHT22;65929;49.062;10.338;2023-08-30T16:15:23;18.90;58.80
76996;DHT22;65929;49.062;10.338;2023-08-30T16:16:27;18.90;59.20
76996;DHT22;65929;49.062;10.338;2023-08-30T16:17:28;18.90;59.60
76996;DHT22;65929;49.062;10.338;2023-08-30T16:18:29;18.80;60.00
76996;DHT22;65929;49.062;10.338;2023-08-30T16:19:32;18.80;61.10
76996;DHT22;65929;49.062;10.338;2023-08-30T16:20:36;18.70;58.60
76996;DHT22;65929;49.062;10.338;2023-08-30T16:21:38;18.70;60.00
76996;DHT22;65929;49.062;10.338;2023-08-30T16:22:41;18.70;59.00
76996;DHT22;65929;49.062;10.338;2023-08-30T16:23:42;18.70;61.60
76996;DHT22;65929;49.062;10.338;2023-08-30T16:24:43;18.60;62.30
76996;DHT22;65929;49.062;10.338;2023-08-30T16:25:44;18.70;61.30
76996;DHT22;65929;49.062;10.338;2023-08-30T16:26:54;18.70;58.90
76996;DHT22;65929;49.062;10.338;2023-08-30T16:27:59;18.70;59.70
76996;DHT22;65929;49.062;10.338;2023-08-30T16:29:00;18.70;60.30
76996;DHT22;65929;49.062;10.338;2023-08-30T16:30:02;18.70;59.80
76996;DHT22;65929;49.062;10.338;2023-08-30T16:31:07;18.70;60.30
76996;DHT22;65929;49.062;10.338;2023-08-30T16:32:07;18.70;61.30
76996;DHT22;65929;49.062;10.338;2023-08-30T16:33:08;18.70;59.50
76996;DHT22;65929;49.062;10.338;2023-08-30T16:34:09;18.70;60.40
76996;DHT22;65929;49.062;10.338;2023-08-30T16:35:12;18.70;60.00
76996;DHT22;65929;49.062;10.338;2023-08-30T16:36:13;18.70;62.90
76996;DHT22;65929;49.062;10.338;2023-08-30T16:37:14;18.70;60.10
76996;DHT22;65929;49.062;10.338;2023-08-30T16:38:15;18.70;59.10
76996;DHT22;65929;49.062;10.338;2023-08-30T16:39:16;18.60;60.00
76996;DHT22;65929;49.062;10.338;2023-08-30T16:40:17;18.60;60.40
76996;DHT22;65929;49.062;10.338;2023-08-30T16:41:18;18.60;61.30
76996;DHT22;65929;49.062;10.338;2023-08-30T16:42:18;18.60;60.40
76996;DHT22;65929;49.062;10.338;2023-08-30T16:43:21;18.50;61.30
76996;DHT22;65929;49.062;10.338;2023-08-30T16:44:22;18.50;60.00
76996;DHT22;65929;49.062;10.338;2023-08-30T16:45:22;18.50;62.00
76996;DHT22;65929;49.062;10.338;2023-08-30T16:46:23;18.40;61.50
76996;DHT22;65929;49.062;10.338;2023-08-30T16:47:24;18.40;63.70
76996;DHT22;65929;49.062;10.338;2023-08-30T16:48:25;18.40;63.00
76996;DHT22;65929;49.062;10.338;2023-08-30T16:49:26;18.40;62.30
76996;DHT22;65929;49.062;10.338;2023-08-30T16:50:28;18.40;62.00
76996;DHT22;65929;49.062;10.338;2023-08-30T16:51:29;18.40;63.60
76996;DHT22;65929;49.062;10.338;2023-08-30T16:52:30;18.50;63.10
76996;DHT22;65929;49.062;10.338;2023-08-30T16:53:32;18.40;62.10
76996;DHT22;65929;49.062;10.338;2023-08-30T16:54:34;18.40;62.40
76996;DHT22;65929;49.062;10.338;2023-08-30T16:55:35;18.30;61.80
76996;DHT22;65929;49.062;10.338;2023-08-30T16:56:36;18.30;63.00
76996;DHT22;65929;49.062;10.338;2023-08-30T16:57:37;18.30;63.00
76996;DHT22;65929;49.062;10.338;2023-08-30T16:58:38;18.30;63.50
76996;DHT22;65929;49.062;10.338;2023-08-30T16:59:39;18.20;63.00
76996;DHT22;65929;49.062;10.338;2023-08-30T17:00:40;18.20;61.70
76996;DHT22;65929;49.062;10.338;2023-08-30T17:01:41;18.20;62.30
76996;DHT22;65929;49.062;10.338;2023-08-30T17:02:42;18.20;62.30
76996;DHT22;65929;49.062;10.338;2023-08-30T17:03:43;18.20;60.80
76996;DHT22;65929;49.062;10.338;2023-08-30T17:04:44;18.10;62.30
76996;DHT22;65929;49.062;10.338;2023-08-30T17:05:46;18.10;62.90
76996;DHT22;65929;49.062;10.338;2023-08-30T17:06:47;18.10;63.80
76996;DHT22;65929;49.062;10.338;2023-08-30T17:07:51;18.00;63.90
76996;DHT22;65929;49.062;10.338;2023-08-30T17:08:51;18.00;63.80
76996;DHT22;65929;49.062;10.338;2023-08-30T17:09:53;17.90;64.70
76996;DHT22;65929;49.062;10.338;2023-08-30T17:10:54;17.80;64.20
76996;DHT22;65929;49.062;10.338;2023-08-30T17:11:55;17.80;64.50
76996;DHT22;65929;49.062;10.338;2023-08-30T17:12:56;17.70;64.00
76996;DHT22;65929;49.062;10.338;2023-08-30T17:13:58;17.60;63.60
76996;DHT22;65929;49.062;10.338;2023-08-30T17:14:59;17.50;64.70
76996;DHT22;65929;49.062;10.338;2023-08-30T17:16:00;17.50;64.30
76996;DHT22;65929;49.062;10.338;2023-08-30T17:17:01;17.40;64.40
76996;DHT22;65929;49.062;10.338;2023-08-30T17:18:04;17.30;65.00
76996;DHT22;65929;49.062;10.338;2023-08-30T17:19:04;17.20;66.10
76996;DHT22;65929;49.062;10.338;2023-08-30T17:20:07;17.20;65.00
76996;DHT22;65929;49.062;10.338;2023-08-30T17:21:10;17.20;66.90
76996;DHT22;65929;49.062;10.338;2023-08-30T17:22:13;17.30;64.80
76996;DHT22;65929;49.062;10.338;2023-08-30T17:23:14;17.30;64.80
76996;DHT22;65929;49.062;10.338;2023-08-30T17:24:14;17.20;64.30
76996;DHT22;65929;49.062;10.338;2023-08-30T17:25:15;17.20;64.70
76996;DHT22;65929;49.062;10.338;2023-08-30T17:26:16;17.20;65.60
76996;DHT22;65929;49.062;10.338;2023-08-30T17:27:19;17.20;67.00
76996;DHT22;65929;49.062;10.338;2023-08-30T17:28:20;17.10;66.50
76996;DHT22;65929;49.062;10.338;2023-08-30T17:29:21;17.00;67.30
76996;DHT22;65929;49.062;10.338;2023-08-30T17:30:22;17.00;66.50
76996;DHT22;65929;49.062;10.338;2023-08-30T17:31:23;17.00;67.70
76996;DHT22;65929;49.062;10.338;2023-08-30T17:32:26;16.90;67.20
76996;DHT22;65929;49.062;10.338;2023-08-30T17:33:27;16.90;67.10
76996;DHT22;65929;49.062;10.338;2023-08-30T17:34:28;16.90;66.20
76996;DHT22;65929;49.062;10.338;2023-08-30T17:35:29;16.80;66.90
76996;DHT22;65929;49.062;10.338;2023-08-30T17:36:35;16.80;67.20
76996;DHT22;65929;49.062;10.338;2023-08-30T17:37:36;16.80;67.40
76996;DHT22;65929;49.062;10.338;2023-08-30T17:38:37;16.80;68.30
76996;DHT22;65929;49.062;10.338;2023-08-30T17:39:39;16.70;67.70
76996;DHT22;65929;49.062;10.338;2023-08-30T17:40:40;16.70;68.00
76996;DHT22;65929;49.062;10.338;2023-08-30T17:41:41;16.70;68.90
76996;DHT22;65929;49.062;10.338;2023-08-30T17:42:43;16.70;68.10
76996;DHT22;65929;49.062;10.338;2023-08-30T17:43:44;16.60;67.40
76996;DHT22;65929;49.062;10.338;2023-08-30T17:44:45;16.60;68.30
76996;DHT22;65929;49.062;10.338;2023-08-30T17:45:48;16.50;69.20
76996;DHT22;65929;49.062;10.338;2023-08-30T17:46:50;16.50;68.20
76996;DHT22;65929;49.062;10.338;2023-08-30T17:47:50;16.40;68.90
76996;DHT22;65929;49.062;10.338;2023-08-30T17:48:51;16.40;69.10
76996;DHT22;65929;49.062;10.338;2023-08-30T17:49:52;16.40;69.40
76996;DHT22;65929;49.062;10.338;2023-08-30T17:50:53;16.30;68.40
76996;DHT22;65929;49.062;10.338;2023-08-30T17:51:55;16.20;69.10
76996;DHT22;65929;49.062;10.338;2023-08-30T17:52:56;16.20;69.50
76996;DHT22;65929;49.062;10.338;2023-08-30T17:53:57;16.10;69.30
76996;DHT22;65929;49.062;10.338;2023-08-30T17:54:58;16.10;69.80
76996;DHT22;65929;49.062;10.338;2023-08-30T17:56:00;16.00;70.10
76996;DHT22;65929;49.062;10.338;2023-08-30T17:57:01;16.00;69.60
76996;DHT22;65929;49.062;10.338;2023-08-30T17:58:03;16.00;70.70
76996;DHT22;65929;49.062;10.338;2023-08-30T17:59:04;15.90;69.90
76996;DHT22;65929;49.062;10.338;2023-08-30T18:00:06;15.80;70.30
76996;DHT22;65929;49.062;10.338;2023-08-30T18:01:09;15.80;70.20
76996;DHT22;65929;49.062;10.338;2023-08-30T18:02:10;15.70;71.10
76996;DHT22;65929;49.062;10.338;2023-08-30T18:03:12;15.70;70.80
76996;DHT22;65929;49.062;10.338;2023-08-30T18:04:13;15.60;71.20
76996;DHT22;65929;49.062;10.338;2023-08-30T18:05:14;15.60;71.20
76996;DHT22;65929;49.062;10.338;2023-08-30T18:06:15;15.60;71.20
76996;DHT22;65929;49.062;10.338;2023-08-30T18:07:18;15.50;71.70
76996;DHT22;65929;49.062;10.338;2023-08-30T18:08:24;15.40;72.30
76996;DHT22;65929;49.062;10.338;2023-08-30T18:09:25;15.40;72.10
76996;DHT22;65929;49.062;10.338;2023-08-30T18:10:29;15.40;72.20
76996;DHT22;65929;49.062;10.338;2023-08-30T18:11:30;15.30;72.30
76996;DHT22;65929;49.062;10.338;2023-08-30T18:12:32;15.30;73.30
76996;DHT22;65929;49.062;10.338;2023-08-30T18:13:33;15.30;73.00
76996;DHT22;65929;49.062;10.338;2023-08-30T18:14:34;15.20;73.20
76996;DHT22;65929;49.062;10.338;2023-08-30T18:15:36;15.20;73.30
76996;DHT22;65929;49.062;10.338;2023-08-30T18:16:36;15.20;73.40
76996;DHT22;65929;49.062;10.338;2023-08-30T18:17:37;15.20;73.80
76996;DHT22;65929;49.062;10.338;2023-08-30T18:18:39;15.20;74.10
76996;DHT22;65929;49.062;10.338;2023-08-30T18:19:40;15.10;74.50
76996;DHT22;65929;49.062;10.338;2023-08-30T18:20:41;15.00;74.80
76996;DHT22;65929;49.062;10.338;2023-08-30T18:21:41;15.00;75.00
76996;DHT22;65929;49.062;10.338;2023-08-30T18:22:44;15.00;75.10
76996;DHT22;65929;49.062;10.338;2023-08-30T18:24:13;15.00;75.40
76996;DHT22;65929;49.062;10.338;2023-08-30T18:25:16;15.00;75.70
76996;DHT22;65929;49.062;10.338;2023-08-30T18:26:17;14.90;75.90
76996;DHT22;65929;49.062;10.338;2023-08-30T18:27:18;14.90;76.20
76996;DHT22;65929;49.062;10.338;2023-08-30T18:28:20;14.90;76.20
76996;DHT22;65929;49.062;10.338;2023-08-30T18:29:20;14.80;76.30
76996;DHT22;65929;49.062;10.338;2023-08-30T18:30:22;14.80;76.60
76996;DHT22;65929;49.062;10.338;2023-08-30T18:31:23;14.80;76.80
76996;DHT22;65929;49.062;10.338;2023-08-30T18:32:23;14.80;77.10
76996;DHT22;65929;49.062;10.338;2023-08-30T18:33:24;14.70;77.10
76996;DHT22;65929;49.062;10.338;2023-08-30T18:34:25;14.70;77.30
76996;DHT22;65929;49.062;10.338;2023-08-30T18:35:27;14.70;77.50
76996;DHT22;65929;49.062;10.338;2023-08-30T18:36:28;14.70;77.60
76996;DHT22;65929;49.062;10.338;2023-08-30T18:37:29;14.60;77.70
76996;DHT22;65929;49.062;10.338;2023-08-30T18:38:34;14.60;77.80
76996;DHT22;65929;49.062;10.338;2023-08-30T18:39:35;14.60;78.00
76996;DHT22;65929;49.062;10.338;2023-08-30T18:40:36;14.60;78.10
76996;DHT22;65929;49.062;10.338;2023-08-30T18:41:38;14.50;78.30
76996;DHT22;65929;49.062;10.338;2023-08-30T18:42:39;14.50;78.70
76996;DHT22;65929;49.062;10.338;2023-08-30T18:43:40;14.50;79.20
76996;DHT22;65929;49.062;10.338;2023-08-30T18:44:43;14.50;78.70
76996;DHT22;65929;49.062;10.338;2023-08-30T18:45:44;14.50;78.80
76996;DHT22;65929;49.062;10.338;2023-08-30T18:46:48;14.40;78.80
76996;DHT22;65929;49.062;10.338;2023-08-30T18:47:49;14.50;79.50
76996;DHT22;65929;49.062;10.338;2023-08-30T18:48:50;14.40;79.10
76996;DHT22;65929;49.062;10.338;2023-08-30T18:49:52;14.40;79.70
76996;DHT22;65929;49.062;10.338;2023-08-30T18:50:53;14.40;79.30
76996;DHT22;65929;49.062;10.338;2023-08-30T18:51:54;14.40;79.70
76996;DHT22;65929;49.062;10.338;2023-08-30T18:52:55;14.40;80.20
76996;DHT22;65929;49.062;10.338;2023-08-30T18:53:57;14.30;80.20
76996;DHT22;65929;49.062;10.338;2023-08-30T18:54:59;14.30;80.70
76996;DHT22;65929;49.062;10.338;2023-08-30T18:56:00;14.30;80.30
76996;DHT22;65929;49.062;10.338;2023-08-30T18:57:01;14.20;79.90
76996;DHT22;65929;49.062;10.338;2023-08-30T18:58:03;14.20;80.20
76996;DHT22;65929;49.062;10.338;2023-08-30T18:59:04;14.20;80.20
76996;DHT22;65929;49.062;10.338;2023-08-30T19:00:07;14.20;80.70
76996;DHT22;65929;49.062;10.338;2023-08-30T19:01:11;14.20;80.40
76996;DHT22;65929;49.062;10.338;2023-08-30T19:02:14;14.10;80.10
76996;DHT22;65929;49.062;10.338;2023-08-30T19:03:15;14.10;80.20
76996;DHT22;65929;49.062;10.338;2023-08-30T19:04:16;14.10;80.00
76996;DHT22;65929;49.062;10.338;2023-08-30T19:05:17;14.10;80.10
76996;DHT22;65929;49.062;10.338;2023-08-30T19:06:18;14.10;80.20
76996;DHT22;65929;49.062;10.338;2023-08-30T19:07:20;14.00;80.40
76996;DHT22;65929;49.062;10.338;2023-08-30T19:08:21;14.00;80.60
76996;DHT22;65929;49.062;10.338;2023-08-30T19:09:23;14.00;80.70
76996;DHT22;65929;49.062;10.338;2023-08-30T19:10:25;13.90;80.80
76996;DHT22;65929;49.062;10.338;2023-08-30T19:11:26;13.90;80.90
76996;DHT22;65929;49.062;10.338;2023-08-30T19:12:27;13.90;81.00
76996;DHT22;65929;49.062;10.338;2023-08-30T19:13:28;13.90;81.30
76996;DHT22;65929;49.062;10.338;2023-08-30T19:14:29;13.80;81.60
76996;DHT22;65929;49.062;10.338;2023-08-30T19:15:29;13.80;81.70
76996;DHT22;65929;49.062;10.338;2023-08-30T19:16:30;13.70;81.70
76996;DHT22;65929;49.062;10.338;2023-08-30T19:17:31;13.70;81.90
76996;DHT22;65929;49.062;10.338;2023-08-30T19:18:32;13.60;82.10
76996;DHT22;65929;49.062;10.338;2023-08-30T19:19:33;13.60;82.20
76996;DHT22;65929;49.062;10.338;2023-08-30T19:20:34;13.60;82.40
76996;DHT22;65929;49.062;10.338;2023-08-30T19:21:35;13.60;82.40
76996;DHT22;65929;49.062;10.338;2023-08-30T19:22:37;13.60;82.40
76996;DHT22;65929;49.062;10.338;2023-08-30T19:23:38;13.60;82.40
76996;DHT22;65929;49.062;10.338;2023-08-30T19:24:41;13.60;82.30
76996;DHT22;65929;49.062;10.338;2023-08-30T19:25:42;13.60;82.50
76996;DHT22;65929;49.062;10.338;2023-08-30T19:26:42;13.50;82.30
76996;DHT22;65929;49.062;10.338;2023-08-30T19:27:44;13.50;82.30
76996;DHT22;65929;49.062;10.338;2023-08-30T19:28:45;13.50;82.40
76996;DHT22;65929;49.062;10.338;2023-08-30T19:29:46;13.50;82.60
76996;DHT22;65929;49.062;10.338;2023-08-30T19:30:48;13.50;82.60
76996;DHT22;65929;49.062;10.338;2023-08-30T19:31:49;13.50;82.40
76996;DHT22;65929;49.062;10.338;2023-08-30T19:32:51;13.50;82.60
76996;DHT22;65929;49.062;10.338;2023-08-30T19:33:52;13.50;82.40
76996;DHT22;65929;49.062;10.338;2023-08-30T19:34:53;13.50;82.30
76996;DHT22;65929;49.062;10.338;2023-08-30T19:35:54;13.50;82.30
76996;DHT22;65929;49.062;10.338;2023-08-30T19:36:54;13.50;82.40
76996;DHT22;65929;49.062;10.338;2023-08-30T19:37:55;13.50;82.50
76996;DHT22;65929;49.062;10.338;2023-08-30T19:38:56;13.40;82.40
76996;DHT22;65929;49.062;10.338;2023-08-30T19:39:58;13.40;82.90
76996;DHT22;65929;49.062;10.338;2023-08-30T19:41:05;13.30;83.20
76996;DHT22;65929;49.062;10.338;2023-08-30T19:42:06;13.30;83.20
76996;DHT22;65929;49.062;10.338;2023-08-30T19:43:07;13.20;83.40
76996;DHT22;65929;49.062;10.338;2023-08-30T19:44:08;13.20;83.80
76996;DHT22;65929;49.062;10.338;2023-08-30T19:45:09;13.10;83.90
76996;DHT22;65929;49.062;10.338;2023-08-30T19:46:10;13.10;84.20
76996;DHT22;65929;49.062;10.338;2023-08-30T19:47:11;13.10;84.40
76996;DHT22;65929;49.062;10.338;2023-08-30T19:48:12;13.10;84.40
76996;DHT22;65929;49.062;10.338;2023-08-30T19:49:13;13.10;84.70
76996;DHT22;65929;49.062;10.338;2023-08-30T19:50:14;13.10;84.80
76996;DHT22;65929;49.062;10.338;2023-08-30T19:51:19;13.10;84.80
76996;DHT22;65929;49.062;10.338;2023-08-30T19:52:22;13.10;85.10
76996;DHT22;65929;49.062;10.338;2023-08-30T19:53:23;13.10;85.20